createdAt,value
2023-12-31T00:01:47.192Z,24.10
2023-12-31T00:04:13.794Z,34.15
2023-12-31T00:06:40.586Z,50.55
2023-12-31T00:09:07.176Z,69.00
2023-12-31T00:11:34.179Z,24.75
2023-12-31T00:14:00.776Z,77.82
2023-12-31T00:16:27.379Z,57.83
2023-12-31T00:18:53.987Z,30.25
2023-12-31T00:21:20.620Z,100.95
2023-12-31T00:23:47.325Z,22.48
2023-12-31T00:26:13.770Z,41.33
2023-12-31T00:28:40.709Z,57.35
2023-12-31T00:31:07.286Z,26.55
2023-12-31T00:33:34.135Z,21.92
2023-12-31T00:36:02.059Z,103.00
2023-12-31T00:38:28.664Z,30.98
2023-12-31T00:40:55.337Z,24.38
2023-12-31T00:43:21.910Z,69.90
2023-12-31T00:45:48.488Z,58.35
2023-12-31T00:48:15.081Z,20.02
2023-12-31T00:50:41.676Z,63.53
2023-12-31T00:53:09.313Z,46.05
2023-12-31T00:55:39.444Z,35.58
2023-12-31T00:58:08.512Z,81.22
2023-12-31T01:00:35.176Z,39.15
2023-12-31T01:03:02.082Z,30.27
2023-12-31T01:05:28.920Z,68.53
2023-12-31T01:07:55.485Z,69.20
2023-12-31T01:10:22.086Z,38.20
2023-12-31T01:12:48.632Z,53.28
2023-12-31T01:15:15.167Z,30.75
2023-12-31T01:17:41.815Z,50.25
2023-12-31T01:20:09.664Z,60.58
2023-12-31T01:22:36.696Z,50.55
2023-12-31T01:25:04.732Z,30.38
2023-12-31T01:27:31.345Z,72.45
2023-12-31T01:29:58.011Z,56.05
2023-12-31T01:32:24.653Z,50.15
2023-12-31T01:34:51.415Z,59.50
2023-12-31T01:37:17.972Z,40.95
2023-12-31T01:39:44.544Z,38.67
2023-12-31T01:42:12.331Z,55.78
2023-12-31T01:44:38.875Z,44.90
2023-12-31T01:47:05.985Z,30.55
2023-12-31T01:49:34.003Z,82.32
2023-12-31T01:52:01.045Z,44.83
2023-12-31T01:54:28.306Z,31.45
2023-12-31T01:56:54.989Z,78.43
2023-12-31T01:59:22.041Z,45.15
2023-12-31T02:01:56.312Z,42.90
2023-12-31T02:04:24.280Z,35.25
2023-12-31T02:06:50.920Z,26.23
2023-12-31T02:09:18.145Z,54.13
2023-12-31T02:11:44.803Z,66.20
2023-12-31T02:14:14.382Z,60.17
2023-12-31T02:16:40.911Z,69.43
2023-12-31T02:19:07.470Z,76.10
2023-12-31T02:21:34.006Z,76.88
2023-12-31T02:24:00.610Z,76.70
2023-12-31T02:26:27.568Z,65.25
2023-12-31T02:28:54.159Z,28.80
2023-12-31T02:31:20.898Z,80.18
2023-12-31T02:33:47.487Z,70.43
2023-12-31T02:36:14.986Z,45.45
2023-12-31T02:38:42.534Z,34.92
2023-12-31T02:41:09.008Z,113.35
2023-12-31T02:43:35.510Z,19.73
2023-12-31T02:46:02.565Z,55.25
2023-12-31T02:48:29.774Z,67.88
2023-12-31T02:50:56.919Z,32.88
2023-12-31T02:53:23.397Z,51.80
2023-12-31T02:55:49.885Z,57.50
2023-12-31T02:58:16.458Z,28.50
2023-12-31T03:00:43.049Z,24.45
2023-12-31T03:03:09.799Z,86.70
2023-12-31T03:05:36.451Z,31.33
2023-12-31T03:08:03.089Z,39.72
2023-12-31T03:10:29.579Z,49.22
2023-12-31T03:12:56.198Z,46.30
2023-12-31T03:15:22.916Z,49.47
2023-12-31T03:17:49.599Z,78.00
2023-12-31T03:20:16.130Z,24.88
2023-12-31T03:22:43.132Z,39.20
2023-12-31T03:25:10.279Z,55.80
2023-12-31T03:27:36.848Z,25.30
2023-12-31T03:30:03.809Z,51.10
2023-12-31T03:32:31.094Z,80.43
2023-12-31T03:34:57.835Z,44.38
2023-12-31T03:37:24.887Z,49.30
2023-12-31T03:39:53.571Z,68.55
2023-12-31T03:42:20.171Z,46.25
2023-12-31T03:44:48.187Z,59.17
2023-12-31T03:47:14.873Z,49.67
2023-12-31T03:49:41.502Z,36.13
2023-12-31T03:52:08.160Z,51.25
2023-12-31T03:54:35.697Z,78.85
2023-12-31T03:57:02.352Z,54.30
2023-12-31T03:59:28.866Z,45.65
2023-12-31T04:01:58.208Z,75.15
2023-12-31T04:04:26.610Z,60.13
2023-12-31T04:06:53.315Z,37.38
2023-12-31T04:09:19.844Z,115.13
2023-12-31T04:11:46.364Z,34.50
2023-12-31T04:14:13.435Z,66.70
2023-12-31T04:16:40.036Z,50.50
2023-12-31T04:19:07.240Z,52.00
2023-12-31T04:21:33.710Z,39.45
2023-12-31T04:24:00.249Z,63.85
2023-12-31T04:26:26.780Z,61.60
2023-12-31T04:28:53.800Z,34.85
2023-12-31T04:31:20.312Z,46.70
2023-12-31T04:33:48.053Z,59.45
2023-12-31T04:36:14.536Z,36.20
2023-12-31T04:38:41.145Z,54.00
2023-12-31T04:41:07.620Z,72.30
2023-12-31T04:43:34.701Z,61.05
2023-12-31T04:46:04.963Z,76.10
2023-12-31T04:48:31.475Z,69.45
2023-12-31T04:50:57.902Z,25.40
2023-12-31T04:53:25.219Z,46.00
2023-12-31T04:55:52.536Z,100.65
2023-12-31T04:58:19.289Z,38.33
2023-12-31T05:00:46.826Z,62.25
2023-12-31T05:03:13.500Z,66.80
2023-12-31T05:05:40.130Z,56.15
2023-12-31T05:08:06.751Z,58.67
2023-12-31T05:10:33.299Z,68.47
2023-12-31T05:12:59.818Z,59.15
2023-12-31T05:15:26.379Z,69.43
2023-12-31T05:17:52.922Z,91.95
2023-12-31T05:20:19.533Z,48.60
2023-12-31T05:22:46.075Z,22.83
2023-12-31T05:25:12.790Z,62.38
2023-12-31T05:27:39.239Z,50.53
2023-12-31T05:30:06.900Z,73.72
2023-12-31T05:32:33.394Z,81.88
2023-12-31T05:34:59.863Z,48.70
2023-12-31T05:37:26.338Z,60.10
2023-12-31T05:39:52.868Z,92.13
2023-12-31T05:42:19.549Z,29.65
2023-12-31T05:44:46.310Z,48.45
2023-12-31T05:47:12.836Z,102.38
2023-12-31T05:49:39.403Z,76.63
2023-12-31T05:52:06.511Z,66.57
2023-12-31T05:54:33.074Z,113.00
2023-12-31T05:56:59.492Z,95.88
2023-12-31T05:59:26.055Z,104.57
2023-12-31T06:01:52.584Z,124.25
2023-12-31T06:04:19.172Z,65.57
2023-12-31T06:06:45.787Z,99.68
2023-12-31T06:09:13.087Z,145.73
2023-12-31T06:11:39.726Z,92.93
2023-12-31T06:14:06.934Z,86.22
2023-12-31T06:16:33.574Z,126.47
2023-12-31T06:19:00.097Z,109.03
2023-12-31T06:21:26.610Z,101.15
2023-12-31T06:23:53.306Z,122.85
2023-12-31T06:26:19.817Z,115.35
2023-12-31T06:28:46.304Z,99.07
2023-12-31T06:31:12.944Z,108.93
2023-12-31T06:33:39.637Z,124.13
2023-12-31T06:36:06.378Z,73.18
2023-12-31T06:38:32.918Z,130.07
2023-12-31T06:40:59.506Z,120.80
2023-12-31T06:43:26.100Z,92.93
2023-12-31T06:45:52.603Z,92.30
2023-12-31T06:48:19.231Z,101.72
2023-12-31T06:50:45.932Z,72.63
2023-12-31T06:53:12.379Z,81.85
2023-12-31T06:55:38.925Z,80.78
2023-12-31T06:58:05.489Z,92.60
2023-12-31T07:00:32.097Z,85.20
2023-12-31T07:02:58.694Z,76.32
2023-12-31T07:05:25.766Z,69.93
2023-12-31T07:07:52.292Z,100.47
2023-12-31T07:10:18.816Z,92.50
2023-12-31T07:12:45.402Z,61.08
2023-12-31T07:15:11.918Z,72.00
2023-12-31T07:17:38.406Z,101.93
2023-12-31T07:20:05.706Z,72.80
2023-12-31T07:22:33.120Z,60.85
2023-12-31T07:25:00.319Z,85.95
2023-12-31T07:27:27.289Z,57.17
2023-12-31T07:29:53.781Z,70.75
2023-12-31T07:32:20.311Z,79.22
2023-12-31T07:34:46.817Z,59.58
2023-12-31T07:37:13.330Z,77.20
2023-12-31T07:39:42.930Z,106.78
2023-12-31T07:42:09.464Z,89.50
2023-12-31T07:44:36.874Z,88.20
2023-12-31T07:47:04.910Z,96.07
2023-12-31T07:49:31.702Z,91.70
2023-12-31T07:51:58.303Z,74.85
2023-12-31T07:54:26.802Z,88.95
2023-12-31T07:56:53.353Z,60.10
2023-12-31T07:59:19.805Z,62.88
2023-12-31T08:01:46.393Z,59.60
2023-12-31T08:04:12.884Z,62.17
2023-12-31T08:06:40.629Z,79.50
2023-12-31T08:09:08.226Z,132.30
2023-12-31T08:11:34.852Z,78.43
2023-12-31T08:14:01.369Z,68.28
2023-12-31T08:16:27.984Z,82.03
2023-12-31T08:18:54.546Z,76.03
2023-12-31T08:21:22.574Z,64.10
2023-12-31T08:23:53.203Z,65.63
2023-12-31T08:26:19.795Z,56.20
2023-12-31T08:28:46.309Z,65.55
2023-12-31T08:31:16.726Z,87.72
2023-12-31T08:33:43.507Z,78.18
2023-12-31T08:36:10.081Z,58.17
2023-12-31T08:38:36.631Z,112.57
2023-12-31T08:41:03.332Z,88.10
2023-12-31T08:43:29.843Z,77.35
2023-12-31T08:45:56.303Z,103.25
2023-12-31T08:48:22.946Z,57.35
2023-12-31T08:50:50.268Z,50.42
2023-12-31T08:53:17.139Z,77.22
2023-12-31T08:55:43.637Z,66.47
2023-12-31T08:58:10.280Z,50.70
2023-12-31T09:00:36.737Z,87.90
2023-12-31T09:03:03.895Z,875.35
2023-12-31T09:05:30.601Z,837.15
2023-12-31T09:07:59.566Z,847.60
2023-12-31T09:10:26.508Z,905.33
2023-12-31T09:12:54.028Z,866.13
2023-12-31T09:15:20.753Z,832.72
2023-12-31T09:17:47.312Z,853.03
2023-12-31T09:20:14.951Z,900.95
2023-12-31T09:22:41.584Z,964.28
2023-12-31T09:25:09.511Z,939.67
2023-12-31T09:27:36.545Z,881.30
2023-12-31T09:30:03.193Z,875.10
2023-12-31T09:32:29.818Z,896.28
2023-12-31T09:34:56.651Z,927.85
2023-12-31T09:37:25.384Z,1086.45
2023-12-31T09:39:52.204Z,845.10
2023-12-31T09:42:26.620Z,880.17
2023-12-31T09:44:53.437Z,820.28
2023-12-31T09:47:20.267Z,882.55
2023-12-31T09:49:47.012Z,857.08
2023-12-31T09:52:14.194Z,784.45
2023-12-31T09:54:41.485Z,894.35
2023-12-31T09:57:09.038Z,857.35
2023-12-31T09:59:36.602Z,847.42
2023-12-31T10:02:04.776Z,858.47
2023-12-31T10:04:34.292Z,855.30
2023-12-31T10:07:01.244Z,797.80
2023-12-31T10:09:32.133Z,1056.32
2023-12-31T10:12:00.051Z,812.60
2023-12-31T10:14:26.615Z,903.53
2023-12-31T10:16:53.602Z,1053.47
2023-12-31T10:19:23.590Z,945.55
2023-12-31T10:21:50.197Z,943.85
2023-12-31T10:24:26.279Z,851.20
2023-12-31T10:26:52.737Z,859.13
2023-12-31T10:29:21.951Z,893.60
2023-12-31T10:31:48.835Z,947.25
2023-12-31T10:34:16.613Z,878.15
2023-12-31T10:36:49.440Z,875.20
2023-12-31T10:39:35.377Z,868.83
2023-12-31T10:42:05.463Z,885.72
2023-12-31T10:44:36.006Z,861.25
2023-12-31T10:47:11.119Z,871.17
2023-12-31T10:49:44.051Z,874.03
2023-12-31T10:52:12.422Z,887.95
2023-12-31T10:54:48.886Z,859.85
2023-12-31T10:57:18.003Z,917.72
2023-12-31T10:59:44.736Z,896.80
2023-12-31T11:02:15.728Z,887.67
2023-12-31T11:04:43.580Z,898.45
2023-12-31T11:07:10.511Z,918.30
2023-12-31T11:09:37.130Z,902.33
2023-12-31T11:12:03.825Z,871.55
2023-12-31T11:14:32.809Z,147.35
2023-12-31T11:17:27.607Z,59.13
2023-12-31T11:20:06.601Z,95.47
2023-12-31T11:22:33.206Z,86.80
2023-12-31T11:25:00.408Z,98.40
2023-12-31T11:27:32.762Z,58.47
2023-12-31T11:29:59.661Z,61.17
2023-12-31T11:32:29.204Z,60.40
2023-12-31T11:34:55.943Z,69.07
2023-12-31T11:37:23.127Z,93.97
2023-12-31T11:39:50.012Z,51.45
2023-12-31T11:42:19.347Z,91.55
2023-12-31T11:44:49.071Z,93.15
2023-12-31T11:47:17.474Z,62.75
2023-12-31T11:49:49.900Z,85.30
2023-12-31T11:52:16.544Z,122.50
2023-12-31T11:54:44.387Z,91.63
2023-12-31T11:57:11.958Z,85.88
2023-12-31T11:59:39.038Z,121.97
2023-12-31T12:02:07.190Z,90.55
2023-12-31T12:04:34.214Z,84.10
2023-12-31T12:07:00.811Z,79.78
2023-12-31T12:09:28.688Z,70.95
2023-12-31T12:12:02.018Z,99.13
2023-12-31T12:14:28.834Z,61.08
2023-12-31T12:16:55.663Z,68.45
2023-12-31T12:19:26.615Z,63.00
2023-12-31T12:21:53.782Z,57.97
2023-12-31T12:24:20.453Z,97.47
2023-12-31T12:26:49.095Z,78.43
2023-12-31T12:29:17.068Z,96.38
2023-12-31T12:31:45.129Z,69.88
2023-12-31T12:34:11.678Z,96.47
2023-12-31T12:36:39.871Z,61.83
2023-12-31T12:39:06.624Z,113.72
2023-12-31T12:41:33.824Z,70.65
2023-12-31T12:44:19.059Z,105.28
2023-12-31T12:46:46.557Z,92.13
2023-12-31T12:49:13.737Z,93.45
2023-12-31T12:51:41.182Z,73.68
2023-12-31T12:54:08.887Z,99.05
2023-12-31T12:56:35.430Z,104.40
2023-12-31T12:59:05.342Z,69.88
2023-12-31T13:01:32.654Z,59.42
2023-12-31T13:03:59.403Z,58.17
2023-12-31T13:06:25.986Z,52.70
2023-12-31T13:08:52.558Z,61.50
2023-12-31T13:11:19.019Z,80.80
2023-12-31T13:13:46.549Z,72.65
2023-12-31T13:16:18.910Z,49.72
2023-12-31T13:18:50.254Z,68.72
2023-12-31T13:21:17.024Z,55.65
2023-12-31T13:23:44.271Z,94.88
2023-12-31T13:26:10.767Z,61.28
2023-12-31T13:28:37.271Z,82.85
2023-12-31T13:31:04.231Z,126.45
2023-12-31T13:33:31.897Z,55.40
2023-12-31T13:35:58.726Z,102.75
2023-12-31T13:38:25.340Z,98.40
2023-12-31T13:40:52.319Z,66.43
2023-12-31T13:43:18.990Z,72.32
2023-12-31T13:45:46.007Z,83.65
2023-12-31T13:48:14.703Z,50.65
2023-12-31T13:50:42.249Z,138.65
2023-12-31T13:53:10.460Z,95.95
2023-12-31T13:55:37.127Z,79.45
2023-12-31T13:58:03.711Z,624.30
2023-12-31T14:00:30.373Z,933.60
2023-12-31T14:03:01.178Z,904.17
2023-12-31T14:05:34.069Z,211.93
2023-12-31T14:08:01.273Z,267.20
2023-12-31T14:10:27.901Z,322.33
2023-12-31T14:12:54.596Z,698.78
2023-12-31T14:15:21.636Z,69.68
2023-12-31T14:17:48.559Z,239.10
2023-12-31T14:20:15.403Z,300.42
2023-12-31T14:22:42.385Z,251.63
2023-12-31T14:25:09.052Z,443.48
2023-12-31T14:27:35.567Z,293.95
2023-12-31T14:30:02.326Z,708.92
2023-12-31T14:32:28.908Z,881.55
2023-12-31T14:34:55.512Z,885.38
2023-12-31T14:37:22.072Z,864.50
2023-12-31T14:39:48.638Z,924.10
2023-12-31T14:42:16.129Z,716.17
2023-12-31T14:44:42.555Z,754.85
2023-12-31T14:47:09.151Z,549.45
2023-12-31T14:49:35.689Z,854.90
2023-12-31T14:52:02.218Z,374.02
2023-12-31T14:54:28.980Z,673.90
2023-12-31T14:56:55.514Z,475.35
2023-12-31T14:59:22.125Z,603.47
2023-12-31T15:01:48.684Z,529.03
2023-12-31T15:04:15.231Z,1135.03
2023-12-31T15:06:42.606Z,1008.85
2023-12-31T15:09:09.396Z,944.65
2023-12-31T15:11:37.281Z,854.53
2023-12-31T15:14:05.488Z,756.10
2023-12-31T15:16:32.657Z,691.40
2023-12-31T15:18:59.178Z,702.67
2023-12-31T15:21:25.786Z,895.22
2023-12-31T15:23:55.629Z,746.35
2023-12-31T15:26:22.172Z,731.60
2023-12-31T15:28:48.741Z,510.23
2023-12-31T15:31:15.290Z,706.20
2023-12-31T15:33:41.870Z,578.38
2023-12-31T15:36:08.624Z,828.90
2023-12-31T15:38:35.347Z,738.95
2023-12-31T15:41:02.044Z,871.35
2023-12-31T15:43:28.753Z,994.70
2023-12-31T15:45:55.281Z,1020.97
2023-12-31T15:48:21.860Z,377.38
2023-12-31T15:50:48.957Z,752.45
2023-12-31T15:53:15.590Z,904.05
2023-12-31T15:55:42.444Z,399.60
2023-12-31T15:58:09.570Z,555.17
2023-12-31T16:01:01.796Z,850.90
2023-12-31T16:03:28.561Z,836.75
2023-12-31T16:05:55.133Z,656.75
2023-12-31T16:08:22.190Z,506.60
2023-12-31T16:10:49.547Z,619.85
2023-12-31T16:13:16.124Z,332.85
2023-12-31T16:15:42.618Z,673.13
2023-12-31T16:18:09.467Z,250.85
2023-12-31T16:20:36.163Z,426.50
2023-12-31T16:23:02.687Z,498.42
2023-12-31T16:25:29.242Z,812.13
2023-12-31T16:27:55.728Z,878.28
2023-12-31T16:30:22.273Z,876.78
2023-12-31T16:32:48.831Z,753.38
2023-12-31T16:35:15.507Z,903.08
2023-12-31T16:37:42.095Z,842.15
2023-12-31T16:40:08.829Z,854.75
2023-12-31T16:42:37.886Z,763.35
2023-12-31T16:45:05.460Z,598.30
2023-12-31T16:47:32.147Z,454.90
2023-12-31T16:49:58.943Z,289.67
2023-12-31T16:52:25.675Z,886.30
2023-12-31T16:54:52.373Z,747.78
2023-12-31T16:57:19.000Z,816.78
2023-12-31T16:59:45.489Z,894.30
2023-12-31T17:02:13.900Z,860.85
2023-12-31T17:04:41.879Z,1061.47
2023-12-31T17:07:08.467Z,175.18
2023-12-31T17:09:34.986Z,257.02
2023-12-31T17:12:01.951Z,104.32
2023-12-31T17:14:29.230Z,146.73
2023-12-31T17:16:56.626Z,144.43
2023-12-31T17:19:23.320Z,312.90
2023-12-31T17:21:49.957Z,121.78
2023-12-31T17:24:16.621Z,499.50
2023-12-31T17:26:43.361Z,635.53
2023-12-31T17:29:11.432Z,863.00
2023-12-31T17:31:38.163Z,729.97
2023-12-31T17:34:05.050Z,891.80
2023-12-31T17:36:31.611Z,906.65
2023-12-31T17:38:58.096Z,919.55
2023-12-31T17:41:24.646Z,915.95
2023-12-31T17:43:51.130Z,959.28
2023-12-31T17:46:17.651Z,917.28
2023-12-31T17:48:44.437Z,905.13
2023-12-31T17:51:11.038Z,929.90
2023-12-31T17:53:38.067Z,902.95
2023-12-31T17:56:04.760Z,924.97
2023-12-31T17:58:31.287Z,909.38
2023-12-31T18:00:57.945Z,912.03
2023-12-31T18:03:24.597Z,1024.60
2023-12-31T18:05:51.276Z,846.33
2023-12-31T18:08:17.929Z,992.70
2023-12-31T18:10:44.442Z,971.03
2023-12-31T18:13:11.103Z,1084.75
2023-12-31T18:15:37.590Z,896.33
2023-12-31T18:18:04.726Z,924.55
2023-12-31T18:20:31.373Z,916.38
2023-12-31T18:22:57.922Z,949.35
2023-12-31T18:25:24.487Z,925.50
2023-12-31T18:27:51.070Z,959.20
2023-12-31T18:30:22.091Z,910.80
2023-12-31T18:32:53.224Z,909.08
2023-12-31T18:35:19.912Z,967.65
2023-12-31T18:37:46.502Z,942.60
2023-12-31T18:40:13.106Z,916.15
2023-12-31T18:42:39.692Z,907.00
2023-12-31T18:45:06.381Z,914.30
2023-12-31T18:47:33.006Z,910.15
2023-12-31T18:49:59.894Z,929.17
2023-12-31T18:52:26.567Z,906.88
2023-12-31T18:54:53.074Z,907.00
2023-12-31T18:57:19.652Z,927.60
2023-12-31T18:59:46.248Z,931.47
2023-12-31T19:02:13.699Z,904.55
2023-12-31T19:04:41.817Z,908.70
2023-12-31T19:07:08.469Z,932.42
2023-12-31T19:09:34.930Z,903.65
2023-12-31T19:12:01.534Z,954.80
2023-12-31T19:14:28.061Z,840.85
2023-12-31T19:16:54.624Z,886.35
2023-12-31T19:19:21.232Z,743.78
2023-12-31T19:21:48.161Z,402.27
2023-12-31T19:24:14.808Z,816.63
2023-12-31T19:26:41.354Z,772.92
2023-12-31T19:29:08.008Z,1317.63
2023-12-31T19:31:34.776Z,1104.93
2023-12-31T19:34:01.410Z,924.22
2023-12-31T19:36:28.109Z,1241.68
2023-12-31T19:38:54.630Z,891.72
2023-12-31T19:41:21.464Z,898.35
2023-12-31T19:44:05.778Z,918.72
2023-12-31T19:46:34.726Z,884.60
2023-12-31T19:49:01.468Z,793.67
2023-12-31T19:51:28.063Z,815.63
2023-12-31T19:53:54.665Z,797.65
2023-12-31T19:56:21.254Z,862.22
2023-12-31T19:58:49.159Z,803.33
2023-12-31T20:01:15.844Z,841.42
2023-12-31T20:03:45.933Z,760.58
2023-12-31T20:06:13.319Z,804.95
2023-12-31T20:08:40.270Z,839.42
2023-12-31T20:11:07.059Z,775.25
2023-12-31T20:13:33.715Z,874.80
2023-12-31T20:16:00.296Z,868.97
2023-12-31T20:18:26.905Z,828.17
2023-12-31T20:20:53.450Z,901.38
2023-12-31T20:23:22.560Z,901.78
2023-12-31T20:25:50.793Z,910.47
2023-12-31T20:28:17.375Z,1028.50
2023-12-31T20:30:44.003Z,931.65
2023-12-31T20:33:11.187Z,902.25
2023-12-31T20:35:38.526Z,888.78
2023-12-31T20:38:05.373Z,892.92
2023-12-31T20:40:31.978Z,891.17
2023-12-31T20:42:58.534Z,873.95
2023-12-31T20:45:27.416Z,873.65
2023-12-31T20:47:54.790Z,877.50
2023-12-31T20:50:26.094Z,893.15
2023-12-31T20:52:53.424Z,788.30
2023-12-31T20:55:20.038Z,880.85
2023-12-31T20:57:47.415Z,847.25
2023-12-31T21:00:14.218Z,838.65
2023-12-31T21:02:40.728Z,843.28
2023-12-31T21:05:08.801Z,832.83
2023-12-31T21:07:35.416Z,904.17
2023-12-31T21:10:04.851Z,926.33
2023-12-31T21:12:34.323Z,879.10
2023-12-31T21:15:01.312Z,920.47
2023-12-31T21:17:28.393Z,893.75
2023-12-31T21:19:55.351Z,1104.03
2023-12-31T21:22:22.564Z,999.65
2023-12-31T21:24:49.154Z,846.30
2023-12-31T21:27:15.632Z,876.40
2023-12-31T21:29:42.247Z,778.42
2023-12-31T21:32:08.905Z,785.55
2023-12-31T21:34:35.655Z,825.13
2023-12-31T21:37:02.167Z,792.58
2023-12-31T21:39:28.801Z,815.00
2023-12-31T21:41:55.303Z,816.75
2023-12-31T21:44:21.950Z,930.10
2023-12-31T21:46:48.477Z,986.53
2023-12-31T21:49:15.099Z,862.17
2023-12-31T21:51:41.698Z,860.97
2023-12-31T21:54:08.827Z,882.65
2023-12-31T21:59:04.787Z,835.08
2023-12-31T22:01:31.518Z,842.55
2023-12-31T22:03:58.121Z,925.40
2023-12-31T22:06:24.685Z,855.40
2023-12-31T22:08:51.221Z,816.17
2023-12-31T22:11:18.144Z,824.45
2023-12-31T22:13:44.762Z,829.53
2023-12-31T22:16:11.423Z,839.25
2023-12-31T22:18:38.268Z,826.85
2023-12-31T22:21:04.916Z,811.60
2023-12-31T22:23:33.379Z,837.60
2023-12-31T22:26:00.572Z,873.00
2023-12-31T22:28:27.315Z,884.63
2023-12-31T22:30:54.105Z,907.22
2023-12-31T22:33:20.818Z,1094.45
2023-12-31T22:35:47.613Z,928.78
2023-12-31T22:38:14.752Z,1090.85
2023-12-31T22:40:42.361Z,1211.05
2023-12-31T22:43:09.580Z,1234.82
2023-12-31T22:45:37.889Z,903.42
2023-12-31T22:48:04.837Z,1008.53
2023-12-31T22:50:31.518Z,792.78
2023-12-31T22:52:59.553Z,864.05
2023-12-31T22:55:26.143Z,856.22
2023-12-31T22:57:52.680Z,920.50
2023-12-31T23:00:20.303Z,835.13
2023-12-31T23:02:47.906Z,864.45
2023-12-31T23:05:14.695Z,966.80
2023-12-31T23:07:41.457Z,909.35
2023-12-31T23:10:08.329Z,939.22
2023-12-31T23:12:34.908Z,957.28
2023-12-31T23:15:01.787Z,980.88
2023-12-31T23:17:28.503Z,944.50
2023-12-31T23:19:55.181Z,961.92
2023-12-31T23:22:21.704Z,913.00
2023-12-31T23:24:48.743Z,901.45
2023-12-31T23:27:15.265Z,861.88
2023-12-31T23:29:43.923Z,889.70
2023-12-31T23:32:11.661Z,881.10
2023-12-31T23:34:38.475Z,871.78
2023-12-31T23:37:09.402Z,898.15
2023-12-31T23:39:37.106Z,893.40
2023-12-31T23:42:03.829Z,835.25
2023-12-31T23:44:31.293Z,760.40
2023-12-31T23:46:59.232Z,770.03
2023-12-31T23:49:27.169Z,770.25
2023-12-31T23:51:54.865Z,790.35
2023-12-31T23:54:21.505Z,819.85
2023-12-31T23:56:48.252Z,840.33
2023-12-31T23:59:16.425Z,842.72
